Time;durP1;ratioP1;P1;durP2;ratioP2;P2;SDS_P1;SDS_P2;PMS_P1;PMS_P2;Temp;Humidity;BMP_temperature;BMP_pressure;BME280_temperature;BME280_humidity;BME280_pressure;Samples;Min_cycle;Max_cycle;Signal;HPM_P1;HPM_P2
2022/09/21 00:02:03;;;;;;;6.72;2.33;;;13.40;57.90;;;;;;4981240;28;20490;-46
2022/09/21 00:04:30;;;;;;;4.32;2.00;;;13.30;57.90;;;;;;4979579;28;20057;-47
2022/09/21 00:06:57;;;;;;;4.30;1.77;;;13.30;58.00;;;;;;4978833;28;20062;-47
2022/09/21 00:09:26;;;;;;;3.00;2.05;;;13.30;58.00;;;;;;4979631;28;20058;-51
2022/09/21 00:11:53;;;;;;;3.85;2.00;;;13.30;58.10;;;;;;4978223;28;20053;-47
2022/09/21 00:14:21;;;;;;;4.63;2.28;;;13.30;58.10;;;;;;4981485;28;20482;-50
2022/09/21 00:16:48;;;;;;;4.75;2.35;;;13.30;58.10;;;;;;4979546;28;20058;-49
2022/09/21 00:19:16;;;;;;;3.90;1.88;;;13.20;58.00;;;;;;4981104;28;20062;-48
2022/09/21 00:21:43;;;;;;;4.68;2.00;;;13.20;58.00;;;;;;4977443;28;20063;-44
2022/09/21 00:24:11;;;;;;;3.83;2.00;;;13.20;58.00;;;;;;4974373;28;20057;-48
2022/09/21 00:26:39;;;;;;;3.00;1.67;;;13.20;58.10;;;;;;4977928;28;20059;-46
2022/09/21 00:29:07;;;;;;;5.15;2.10;;;13.20;58.10;;;;;;4979601;28;20443;-47
2022/09/21 00:31:34;;;;;;;4.05;2.15;;;13.20;58.20;;;;;;4985754;28;20062;-48
2022/09/21 00:34:02;;;;;;;4.50;1.70;;;13.10;58.10;;;;;;4986007;28;20062;-47
2022/09/21 00:36:29;;;;;;;4.10;1.70;;;13.10;58.00;;;;;;4981388;28;20054;-47
2022/09/21 00:38:59;;;;;;;4.90;2.70;;;13.10;58.00;;;;;;4983579;28;20576;-47
2022/09/21 00:41:28;;;;;;;5.10;2.35;;;13.10;58.00;;;;;;4983097;28;20058;-46
2022/09/21 00:44:25;;;;;;;2.80;2.22;;;13.00;57.90;;;;;;4985458;28;20498;-49
2022/09/21 00:46:54;;;;;;;3.45;2.30;;;13.00;58.00;;;;;;4978195;28;20057;-50
2022/09/21 00:49:22;;;;;;;2.78;1.88;;;13.00;57.90;;;;;;4984935;28;20620;-48
2022/09/21 00:51:52;;;;;;;4.63;2.20;;;13.00;58.00;;;;;;4985736;28;20061;-45
2022/09/21 00:54:25;;;;;;;4.95;2.45;;;13.00;58.10;;;;;;4983178;28;20054;-45
2022/09/21 00:56:54;;;;;;;3.63;2.43;;;13.00;58.10;;;;;;4981978;28;20050;-48
2022/09/21 00:59:23;;;;;;;5.68;2.40;;;12.90;58.10;;;;;;4982511;28;20489;-50
2022/09/21 01:01:51;;;;;;;3.90;2.10;;;12.90;58.10;;;;;;4984478;28;20050;-48
2022/09/21 01:04:18;;;;;;;3.05;2.30;;;12.90;58.10;;;;;;4984680;28;20054;-52
2022/09/21 01:06:46;;;;;;;4.32;2.60;;;12.90;58.20;;;;;;4983004;28;20529;-50
2022/09/21 01:09:15;;;;;;;4.78;2.70;;;12.90;58.30;;;;;;4985285;28;20058;-46
2022/09/21 01:11:50;;;;;;;11.05;2.72;;;12.80;58.20;;;;;;4981046;28;20066;-48
2022/09/21 01:14:44;;;;;;;5.35;2.15;;;12.80;58.10;;;;;;4983311;28;20046;-52
2022/09/21 01:17:19;;;;;;;7.75;2.55;;;12.80;58.20;;;;;;4978269;28;20050;-52
2022/09/21 01:20:22;;;;;;;8.20;2.60;;;12.80;58.20;;;;;;4984872;28;20546;-48
2022/09/21 01:23:05;;;;;;;4.30;2.20;;;12.80;58.20;;;;;;4938465;28;20061;-47
2022/09/21 01:25:42;;;;;;;4.03;2.42;;;12.70;58.20;;;;;;4975585;28;20050;-47
2022/09/21 01:28:24;;;;;;;7.07;2.65;;;12.70;58.20;;;;;;4981997;28;20388;-46
2022/09/21 01:30:54;;;;;;;4.90;2.60;;;12.70;58.30;;;;;;4983375;28;20563;-54
2022/09/21 01:33:26;;;;;;;5.63;2.53;;;12.70;58.20;;;;;;4983551;28;20046;-49
2022/09/21 01:35:57;;;;;;;4.60;2.67;;;12.60;58.20;;;;;;4979303;28;20057;-48
2022/09/21 01:38:28;;;;;;;7.47;2.70;;;12.60;58.30;;;;;;4978318;28;20058;-47
2022/09/21 01:41:00;;;;;;;4.28;2.63;;;12.60;58.30;;;;;;4979525;28;20081;-50
2022/09/21 01:43:32;;;;;;;4.00;2.22;;;12.60;58.30;;;;;;4981866;28;20057;-49
2022/09/21 01:46:03;;;;;;;3.08;2.35;;;12.60;58.40;;;;;;4976285;28;20061;-49
2022/09/21 01:48:36;;;;;;;4.05;2.63;;;12.60;58.50;;;;;;4983886;28;20054;-46
2022/09/21 01:51:07;;;;;;;4.40;2.42;;;12.50;58.50;;;;;;4983117;28;20376;-48
2022/09/21 01:53:39;;;;;;;4.90;2.22;;;12.50;58.50;;;;;;4981736;28;20057;-48
2022/09/21 01:56:13;;;;;;;4.80;2.70;;;12.50;58.50;;;;;;4981426;28;20057;-48
2022/09/21 01:58:46;;;;;;;4.18;2.30;;;12.50;58.50;;;;;;4981935;28;20061;-47
2022/09/21 02:01:17;;;;;;;3.25;2.10;;;12.50;58.40;;;;;;4984801;28;20520;-45
2022/09/21 02:03:48;;;;;;;5.13;2.30;;;12.50;58.30;;;;;;4983879;28;20050;-47
2022/09/21 02:06:17;;;;;;;3.42;1.90;;;12.50;58.20;;;;;;4979292;28;20054;-50
2022/09/21 02:08:45;;;;;;;3.67;2.40;;;12.40;58.10;;;;;;4984987;28;20054;-48
2022/09/21 02:11:12;;;;;;;4.70;2.85;;;12.40;58.00;;;;;;4983634;28;20065;-48
2022/09/21 02:13:44;;;;;;;5.70;2.83;;;12.40;57.90;;;;;;4983642;28;20057;-48
2022/09/21 02:16:29;;;;;;;4.80;2.65;;;12.30;57.80;;;;;;4978397;28;20073;-48
2022/09/21 02:19:10;;;;;;;5.82;2.70;;;12.30;57.70;;;;;;4982037;28;20530;-44
2022/09/21 02:21:51;;;;;;;8.00;3.17;;;12.30;57.70;;;;;;4979921;28;20050;-45
2022/09/21 02:24:27;;;;;;;6.25;2.75;;;12.30;57.80;;;;;;4978545;28;20050;-48
2022/09/21 02:27:02;;;;;;;5.43;2.92;;;12.20;58.30;;;;;;4978290;28;20054;-49
2022/09/21 02:29:39;;;;;;;6.80;3.28;;;12.10;57.90;;;;;;4983374;28;20069;-48
2022/09/21 02:32:12;;;;;;;5.55;3.22;;;12.10;58.00;;;;;;4979709;28;20053;-48
2022/09/21 02:34:45;;;;;;;7.40;3.17;;;12.10;58.00;;;;;;4981085;28;20054;-47
2022/09/21 02:37:21;;;;;;;4.07;2.70;;;12.10;58.10;;;;;;4979415;28;20057;-44
2022/09/21 02:39:55;;;;;;;5.50;2.90;;;12.00;58.60;;;;;;4977397;28;20956;-53
2022/09/21 02:42:26;;;;;;;4.38;3.13;;;12.10;58.30;;;;;;4976907;28;20422;-52
2022/09/21 02:45:00;;;;;;;4.60;3.08;;;12.10;58.40;;;;;;4980298;28;20065;-52
2022/09/21 02:47:33;;;;;;;4.30;2.70;;;12.00;58.40;;;;;;4977111;28;20058;-58
2022/09/21 02:50:06;;;;;;;5.60;3.03;;;12.00;58.50;;;;;;4982541;28;20050;-58
2022/09/21 02:52:35;;;;;;;4.20;3.00;;;12.00;58.60;;;;;;4983852;28;20058;-59
2022/09/21 02:55:05;;;;;;;2.72;2.40;;;12.00;58.60;;;;;;4981926;28;20054;-58
2022/09/21 02:57:32;;;;;;;4.05;2.72;;;12.00;58.60;;;;;;4979372;28;20049;-53
2022/09/21 02:59:59;;;;;;;3.17;2.20;;;12.00;58.60;;;;;;4981836;28;20510;-56
2022/09/21 03:02:37;;;;;;;4.15;2.20;;;12.00;58.50;;;;;;4981359;28;20054;-56
2022/09/21 03:05:06;;;;;;;2.95;2.40;;;11.90;58.20;;;;;;4981278;28;20065;-59
2022/09/21 03:07:33;;;;;;;4.72;2.20;;;11.90;58.20;;;;;;4977557;28;20402;-58
2022/09/21 03:10:01;;;;;;;4.88;2.38;;;11.90;58.10;;;;;;4976950;28;20068;-58
2022/09/21 03:12:29;;;;;;;3.78;2.63;;;11.90;58.10;;;;;;4977342;28;20050;-58
2022/09/21 03:14:56;;;;;;;2.35;1.80;;;11.90;58.00;;;;;;4976407;28;20066;-57
2022/09/21 03:17:23;;;;;;;2.85;1.95;;;11.90;57.90;;;;;;4981292;28;20058;-58
2022/09/21 03:19:53;;;;;;;4.63;2.50;;;11.80;57.90;;;;;;4982097;28;20061;-58
2022/09/21 03:22:21;;;;;;;3.92;2.55;;;11.80;57.90;;;;;;4981912;28;20058;-58
2022/09/21 03:24:48;;;;;;;2.65;2.30;;;11.80;57.90;;;;;;4981967;28;20490;-54
2022/09/21 03:27:17;;;;;;;4.97;2.53;;;11.80;58.00;;;;;;4979106;28;20426;-58
2022/09/21 03:29:45;;;;;;;4.00;2.50;;;11.70;57.90;;;;;;4979198;28;20058;-50
2022/09/21 03:32:13;;;;;;;3.70;2.30;;;11.70;58.00;;;;;;4979078;28;20379;-58
2022/09/21 03:34:40;;;;;;;4.85;2.45;;;11.70;58.00;;;;;;4982787;28;20430;-58
2022/09/21 03:37:09;;;;;;;2.47;2.28;;;11.70;58.00;;;;;;4981001;28;20510;-54
2022/09/21 03:39:37;;;;;;;3.22;2.28;;;11.60;58.00;;;;;;4980973;28;20058;-57
2022/09/21 03:42:05;;;;;;;4.25;2.30;;;11.60;58.00;;;;;;4977606;28;20065;-58
2022/09/21 03:44:33;;;;;;;4.38;2.42;;;11.60;57.90;;;;;;4982599;28;20057;-58
2022/09/21 03:47:00;;;;;;;5.40;2.80;;;11.60;57.80;;;;;;4981563;28;20494;-58
2022/09/21 03:49:28;;;;;;;4.05;2.80;;;11.60;57.90;;;;;;4983386;28;20069;-58
2022/09/21 03:51:55;;;;;;;4.47;2.70;;;11.50;57.90;;;;;;4981702;28;20054;-59
2022/09/21 03:54:24;;;;;;;3.05;2.42;;;11.50;58.00;;;;;;4981856;28;20061;-58
2022/09/21 03:56:52;;;;;;;3.47;2.45;;;11.50;58.00;;;;;;4980658;28;20050;-58
2022/09/21 03:59:19;;;;;;;4.25;2.92;;;11.50;58.00;;;;;;4982500;28;20054;-57
2022/09/21 04:01:46;;;;;;;4.57;3.10;;;11.40;57.90;;;;;;4985689;28;20054;-58
2022/09/21 04:04:15;;;;;;;4.72;2.65;;;11.40;57.90;;;;;;4986727;28;20057;-58
2022/09/21 04:06:45;;;;;;;3.45;2.83;;;11.40;57.80;;;;;;4984741;28;20065;-57
2022/09/21 04:09:12;;;;;;;4.53;2.53;;;11.40;57.90;;;;;;4983821;28;20062;-58
2022/09/21 04:11:41;;;;;;;6.93;2.75;;;11.30;57.80;;;;;;4981365;28;20062;-54
2022/09/21 04:14:09;;;;;;;2.85;2.17;;;11.30;57.70;;;;;;4983761;28;20073;-58
2022/09/21 04:16:36;;;;;;;2.95;2.30;;;11.30;57.70;;;;;;4978858;28;20054;-58
2022/09/21 04:19:04;;;;;;;3.72;2.30;;;11.20;57.70;;;;;;4984007;28;20061;-58
2022/09/21 04:21:31;;;;;;;3.42;2.50;;;11.20;57.90;;;;;;4983705;28;20506;-58
2022/09/21 04:23:59;;;;;;;4.25;2.47;;;11.20;57.90;;;;;;4981145;28;20049;-51
2022/09/21 04:26:28;;;;;;;4.28;2.60;;;11.20;58.00;;;;;;4983289;28;20058;-54
2022/09/21 04:28:57;;;;;;;3.38;2.40;;;11.20;58.00;;;;;;4985765;28;20062;-58
2022/09/21 04:31:25;;;;;;;5.22;3.08;;;11.20;57.90;;;;;;4980063;28;20062;-58
2022/09/21 04:33:54;;;;;;;3.67;2.50;;;11.10;57.90;;;;;;4983774;28;20057;-58
2022/09/21 04:36:24;;;;;;;3.92;2.58;;;11.10;58.00;;;;;;4985497;28;20059;-58
2022/09/21 04:38:51;;;;;;;3.10;2.22;;;11.10;58.00;;;;;;4985419;28;20061;-58
2022/09/21 04:41:19;;;;;;;2.50;2.28;;;11.10;58.10;;;;;;4985444;28;20050;-55
2022/09/21 04:43:47;;;;;;;3.67;2.28;;;11.10;58.00;;;;;;4984026;28;20061;-58
2022/09/21 04:46:18;;;;;;;3.95;2.00;;;11.00;57.90;;;;;;4983282;28;20050;-53
2022/09/21 04:48:46;;;;;;;4.03;2.25;;;11.00;57.90;;;;;;4981093;28;20066;-56
2022/09/21 04:51:14;;;;;;;3.88;2.13;;;11.00;57.90;;;;;;4982542;28;20065;-58
2022/09/21 04:53:42;;;;;;;5.90;2.47;;;11.00;57.80;;;;;;4985109;28;20506;-57
2022/09/21 04:56:12;;;;;;;8.02;2.72;;;10.90;57.80;;;;;;4983460;28;20055;-57
2022/09/21 04:58:40;;;;;;;3.85;2.50;;;10.90;57.90;;;;;;4981992;28;20050;-58
2022/09/21 05:01:07;;;;;;;3.53;2.30;;;10.90;57.90;;;;;;4984861;28;20054;-58
2022/09/21 05:03:36;;;;;;;2.50;2.15;;;10.90;58.00;;;;;;4981754;28;20050;-54
2022/09/21 05:06:04;;;;;;;4.18;2.90;;;10.90;58.10;;;;;;4985707;28;20058;-58
2022/09/21 05:11:18;;;;;;;7.13;3.42;;;10.90;58.10;;;;;;4986460;28;20061;-58
2022/09/21 05:13:46;;;;;;;2.83;2.30;;;10.90;58.20;;;;;;4982794;28;20824;-58
2022/09/21 05:16:14;;;;;;;3.53;2.65;;;10.80;58.20;;;;;;4978992;28;20388;-56
2022/09/21 05:18:43;;;;;;;4.50;2.40;;;10.80;58.10;;;;;;4982324;28;20061;-56
2022/09/21 05:21:12;;;;;;;12.55;2.85;;;10.80;58.00;;;;;;4982857;28;20058;-57
2022/09/21 05:23:39;;;;;;;2.70;1.98;;;10.80;58.00;;;;;;4983798;28;20061;-57
2022/09/21 05:26:07;;;;;;;4.72;2.25;;;10.80;58.00;;;;;;4982171;28;20058;-58
2022/09/21 05:28:34;;;;;;;4.82;2.05;;;10.80;58.00;;;;;;4981511;28;20978;-58
2022/09/21 05:31:10;;;;;;;5.72;2.25;;;10.70;58.00;;;;;;4979843;28;20061;-58
2022/09/21 05:33:40;;;;;;;2.72;2.08;;;10.70;58.00;;;;;;4980952;28;20050;-58
2022/09/21 05:36:20;;;;;;;5.20;2.08;;;10.70;58.00;;;;;;4979929;28;20065;-58
2022/09/21 05:38:48;;;;;;;4.15;1.80;;;10.70;58.10;;;;;;4983245;28;20057;-49
2022/09/21 05:41:16;;;;;;;2.45;1.80;;;10.70;58.10;;;;;;4981392;28;20055;-56
2022/09/21 05:43:44;;;;;;;2.72;1.88;;;10.70;58.20;;;;;;4980437;28;20057;-58
2022/09/21 05:46:17;;;;;;;2.67;1.83;;;10.70;58.20;;;;;;4978418;28;20058;-57
2022/09/21 05:48:55;;;;;;;2.67;1.90;;;10.70;58.20;;;;;;4981054;28;20062;-58
2022/09/21 05:51:33;;;;;;;1.83;1.52;;;10.70;58.30;;;;;;4981444;28;20046;-58
2022/09/21 05:54:08;;;;;;;2.90;1.85;;;10.70;58.30;;;;;;4979221;28;20062;-55
2022/09/21 05:56:43;;;;;;;1.65;1.45;;;10.70;58.30;;;;;;4978049;28;20109;-58
2022/09/21 05:59:36;;;;;;;2.30;1.80;;;10.70;58.40;;;;;;4982235;28;20061;-57
2022/09/21 06:02:11;;;;;;;1.98;1.50;;;10.70;58.40;;;;;;4976367;28;20055;-55
2022/09/21 06:04:39;;;;;;;1.98;1.77;;;10.70;58.40;;;;;;4983440;28;20059;-58
2022/09/21 06:07:08;;;;;;;2.17;1.77;;;10.70;58.40;;;;;;4982432;28;20069;-58
2022/09/21 06:09:35;;;;;;;3.33;2.17;;;10.70;58.50;;;;;;4981539;28;20438;-56
2022/09/21 06:12:03;;;;;;;1.83;1.40;;;10.70;58.50;;;;;;4977814;28;20058;-57
2022/09/21 06:14:31;;;;;;;2.80;1.70;;;10.70;58.60;;;;;;4981826;28;20046;-57
2022/09/21 06:16:58;;;;;;;3.28;1.77;;;10.70;58.60;;;;;;4981836;28;20536;-58
2022/09/21 06:19:25;;;;;;;2.05;1.70;;;10.70;58.70;;;;;;4982803;28;20065;-58
2022/09/21 06:21:52;;;;;;;3.05;1.73;;;10.70;58.80;;;;;;4984301;28;20058;-58
2022/09/21 06:24:21;;;;;;;2.80;1.80;;;10.70;58.90;;;;;;4983102;28;20058;-57
2022/09/21 06:26:48;;;;;;;4.20;1.85;;;10.70;58.90;;;;;;4980026;28;20054;-55
2022/09/21 06:29:16;;;;;;;2.17;1.70;;;10.80;59.10;;;;;;4981406;28;20050;-58
2022/09/21 06:31:43;;;;;;;2.78;2.10;;;10.80;59.20;;;;;;4980912;28;20544;-57
2022/09/21 06:34:10;;;;;;;1.98;1.77;;;10.80;59.20;;;;;;4983326;28;20383;-57
2022/09/21 06:36:37;;;;;;;3.03;2.10;;;10.80;59.30;;;;;;4983848;28;20058;-57
2022/09/21 06:39:05;;;;;;;2.25;1.73;;;10.80;59.40;;;;;;4983087;28;20057;-57
2022/09/21 06:41:33;;;;;;;2.70;2.00;;;10.90;59.50;;;;;;4979969;28;20061;-57
2022/09/21 06:44:00;;;;;;;2.30;1.55;;;10.90;59.50;;;;;;4981065;28;20065;-53
2022/09/21 06:46:28;;;;;;;2.70;2.10;;;11.00;59.60;;;;;;4979123;28;20065;-54
2022/09/21 06:48:55;;;;;;;2.65;2.00;;;11.00;59.60;;;;;;4982665;28;20050;-56
2022/09/21 06:51:23;;;;;;;4.15;1.90;;;11.00;59.70;;;;;;4978150;28;20054;-57
2022/09/21 06:54:00;;;;;;;3.17;2.20;;;11.10;60.40;;;;;;4982842;28;20058;-57
2022/09/21 06:56:27;;;;;;;3.25;1.75;;;11.10;59.90;;;;;;4979393;28;20446;-57
2022/09/21 06:58:55;;;;;;;3.85;1.70;;;11.10;59.90;;;;;;4982223;28;20058;-57
2022/09/21 07:01:23;;;;;;;1.50;1.40;;;11.10;59.90;;;;;;4981160;28;20054;-57
2022/09/21 07:03:52;;;;;;;1.98;1.70;;;11.20;59.90;;;;;;4983244;28;20407;-57
2022/09/21 07:06:20;;;;;;;3.05;1.55;;;11.20;60.00;;;;;;4982284;28;20615;-56
2022/09/21 07:08:48;;;;;;;2.90;1.80;;;11.30;60.10;;;;;;4983991;28;20050;-57
2022/09/21 07:11:15;;;;;;;1.50;1.40;;;11.30;60.20;;;;;;4981872;28;20137;-57
2022/09/21 07:13:42;;;;;;;2.80;1.90;;;11.30;60.30;;;;;;4981200;28;20507;-57
2022/09/21 07:16:11;;;;;;;3.38;1.80;;;11.40;60.50;;;;;;4980960;28;20073;-58
2022/09/21 07:18:40;;;;;;;4.97;1.70;;;11.40;60.60;;;;;;4976334;28;20061;-54
2022/09/21 07:21:09;;;;;;;2.92;2.03;;;11.50;60.80;;;;;;4975118;28;20058;-57
2022/09/21 07:23:37;;;;;;;4.35;2.33;;;11.50;60.80;;;;;;4982144;28;20054;-57
2022/09/21 07:26:07;;;;;;;2.42;1.70;;;11.60;60.90;;;;;;4978439;28;20066;-58
2022/09/21 07:28:35;;;;;;;3.00;2.00;;;11.60;61.00;;;;;;4982513;28;20046;-58
2022/09/21 07:31:08;;;;;;;3.20;1.90;;;11.70;61.00;;;;;;4980705;28;20061;-58
2022/09/21 07:33:37;;;;;;;3.72;2.10;;;11.70;61.20;;;;;;4982124;28;20146;-55
2022/09/21 07:36:09;;;;;;;4.78;2.25;;;11.80;61.30;;;;;;4979592;28;20506;-58
2022/09/21 07:38:37;;;;;;;2.85;1.90;;;11.80;61.30;;;;;;4983247;28;20395;-58
2022/09/21 07:41:04;;;;;;;4.05;2.40;;;11.80;61.40;;;;;;4982973;28;20405;-57
2022/09/21 07:43:32;;;;;;;5.85;2.42;;;11.90;61.60;;;;;;4982420;28;20510;-58
2022/09/21 07:46:00;;;;;;;3.03;2.40;;;12.00;61.50;;;;;;4975804;28;20058;-57
2022/09/21 07:48:29;;;;;;;3.70;2.33;;;12.00;61.50;;;;;;4979254;28;20058;-58
2022/09/21 07:51:04;;;;;;;2.90;2.13;;;12.00;61.50;;;;;;4983037;28;20475;-57
2022/09/21 07:53:32;;;;;;;4.95;2.53;;;12.10;61.70;;;;;;4975984;28;20065;-57
2022/09/21 07:56:03;;;;;;;3.75;2.70;;;12.10;61.70;;;;;;4966317;28;20077;-56
2022/09/21 08:01:16;;;;;;;4.30;2.55;;;12.20;61.60;;;;;;4972141;28;20097;-57
2022/09/21 08:03:43;;;;;;;5.95;2.35;;;12.30;61.70;;;;;;4973844;28;20054;-57
2022/09/21 08:06:12;;;;;;;3.38;2.30;;;12.30;61.80;;;;;;4975298;28;20089;-58
2022/09/21 08:08:40;;;;;;;4.90;2.30;;;12.40;61.90;;;;;;4975372;28;20053;-58
2022/09/21 08:11:10;;;;;;;4.65;2.53;;;12.40;61.90;;;;;;4975877;28;20058;-58
2022/09/21 08:13:38;;;;;;;4.88;2.20;;;12.50;62.00;;;;;;4974451;28;20795;-58
2022/09/21 08:16:05;;;;;;;6.80;2.30;;;12.50;62.00;;;;;;4975837;28;20479;-58
2022/09/21 08:18:36;;;;;;;3.45;2.20;;;12.50;62.00;;;;;;4974333;28;20059;-54
2022/09/21 08:21:04;;;;;;;3.08;2.08;;;12.60;62.10;;;;;;4976953;28;20054;-58
2022/09/21 08:23:32;;;;;;;3.80;2.50;;;12.60;62.00;;;;;;4977260;28;20069;-55
2022/09/21 08:26:01;;;;;;;4.60;2.20;;;12.70;62.10;;;;;;4970858;28;20449;-56
2022/09/21 08:28:30;;;;;;;8.50;4.28;;;12.70;62.10;;;;;;4972395;28;20058;-58
2022/09/21 08:30:59;;;;;;;3.53;2.40;;;12.80;62.30;;;;;;4967850;28;20061;-58
2022/09/21 08:33:27;;;;;;;5.65;2.55;;;12.80;62.30;;;;;;4974438;28;20051;-58
2022/09/21 08:35:56;;;;;;;4.82;2.60;;;12.90;62.30;;;;;;4974510;28;20490;-57
2022/09/21 08:38:23;;;;;;;3.90;2.22;;;13.00;62.40;;;;;;4973822;28;20061;-58
2022/09/21 08:40:54;;;;;;;11.82;2.33;;;13.00;62.60;;;;;;4976658;28;20059;-58
2022/09/21 08:43:31;;;;;;;4.65;2.60;;;13.00;62.70;;;;;;4973693;28;20050;-57
2022/09/21 08:46:00;;;;;;;4.38;2.20;;;13.10;63.00;;;;;;4973636;28;20065;-54
2022/09/21 08:48:31;;;;;;;3.95;2.47;;;13.10;62.90;;;;;;4978441;28;20062;-56
2022/09/21 08:51:02;;;;;;;4.93;2.70;;;13.20;63.00;;;;;;4981443;28;20054;-58
2022/09/21 08:53:34;;;;;;;4.43;2.78;;;13.30;63.20;;;;;;4978832;28;20061;-50
2022/09/21 08:56:03;;;;;;;3.50;2.35;;;13.30;63.10;;;;;;4977676;28;20057;-59
2022/09/21 08:58:32;;;;;;;5.38;2.38;;;13.40;63.10;;;;;;4980129;28;20418;-59
2022/09/21 09:01:15;;;;;;;4.40;2.63;;;13.40;63.10;;;;;;4977076;28;20058;-55
2022/09/21 09:03:56;;;;;;;6.22;3.13;;;13.50;63.50;;;;;;4981029;28;20061;-58
2022/09/21 09:06:34;;;;;;;5.82;2.30;;;13.60;63.50;;;;;;4976754;28;20482;-57
2022/09/21 09:09:18;;;;;;;5.28;2.42;;;13.70;63.60;;;;;;4980591;28;20072;-58
2022/09/21 09:12:03;;;;;;;4.45;2.15;;;13.70;63.30;;;;;;4980385;28;20053;-58
2022/09/21 09:14:59;;;;;;;3.38;2.10;;;13.80;63.30;;;;;;4981673;28;20050;-58
2022/09/21 09:17:37;;;;;;;5.47;2.20;;;13.80;63.50;;;;;;4974827;28;20054;-59
2022/09/21 09:20:10;;;;;;;5.82;2.53;;;14.00;63.30;;;;;;4978865;28;20054;-59
2022/09/21 09:22:41;;;;;;;5.72;2.25;;;14.00;63.20;;;;;;4977828;28;20506;-58
2022/09/21 09:25:19;;;;;;;8.80;2.50;;;14.10;63.00;;;;;;4979663;28;20054;-58
2022/09/21 09:27:53;;;;;;;9.10;2.35;;;14.20;63.00;;;;;;4979167;28;20050;-57
2022/09/21 09:30:23;;;;;;;8.75;2.85;;;14.20;62.90;;;;;;4975224;28;20042;-58
2022/09/21 09:32:58;;;;;;;6.05;2.72;;;14.30;62.80;;;;;;4980475;28;20054;-55
2022/09/21 09:35:28;;;;;;;4.30;2.40;;;14.40;62.70;;;;;;4974229;28;20061;-57
2022/09/21 09:37:59;;;;;;;6.35;2.47;;;14.40;62.50;;;;;;4982037;28;20050;-59
2022/09/21 09:40:48;;;;;;;8.20;2.65;;;14.50;62.30;;;;;;4979487;28;20082;-59
2022/09/21 09:43:27;;;;;;;6.82;2.83;;;14.50;61.90;;;;;;4978490;28;20467;-60
2022/09/21 09:46:06;;;;;;;4.40;2.15;;;14.60;61.80;;;;;;4976918;28;20054;-59
2022/09/21 09:48:45;;;;;;;7.15;2.58;;;14.70;61.70;;;;;;4978558;28;20055;-51
2022/09/21 09:51:13;;;;;;;4.30;2.22;;;14.70;61.60;;;;;;4981593;28;20418;-58
2022/09/21 09:53:40;;;;;;;6.68;2.13;;;14.80;61.50;;;;;;4977442;28;20046;-56
2022/09/21 09:56:10;;;;;;;7.70;3.30;;;14.80;60.90;;;;;;4981515;28;20058;-60
2022/09/21 09:58:43;;;;;;;5.15;2.28;;;14.90;60.40;;;;;;4975767;28;22058;-57
2022/09/21 10:01:38;;;;;;;6.88;1.90;;;14.90;59.70;;;;;;4977006;28;20399;-59
2022/09/21 10:04:08;;;;;;;6.20;1.60;;;15.00;59.50;;;;;;4979193;28;20061;-58
2022/09/21 10:06:35;;;;;;;4.22;1.55;;;15.10;59.40;;;;;;4977236;28;20065;-58
2022/09/21 10:09:19;;;;;;;8.82;1.98;;;15.10;59.20;;;;;;4980486;28;20062;-58
2022/09/21 10:11:48;;;;;;;2.05;1.10;;;15.20;59.10;;;;;;4979156;28;20648;-58
2022/09/21 10:14:20;;;;;;;7.30;1.70;;;15.30;58.90;;;;;;4977470;28;20061;-58
2022/09/21 10:16:50;;;;;;;7.22;1.48;;;15.30;58.80;;;;;;4974625;28;20054;-59
2022/09/21 10:19:21;;;;;;;11.25;1.20;;;15.30;58.70;;;;;;4976564;28;20062;-59
2022/09/21 10:21:55;;;;;;;3.42;1.35;;;15.40;58.20;;;;;;4977696;28;20058;-61
2022/09/21 10:24:25;;;;;;;5.95;2.10;;;15.40;56.90;;;;;;4976736;28;20057;-58
2022/09/21 10:26:55;;;;;;;3.58;1.20;;;15.50;56.80;;;;;;4977382;28;20066;-57
2022/09/21 10:29:33;;;;;;;2.50;1.00;;;15.60;56.90;;;;;;4977271;28;20058;-58
2022/09/21 10:32:02;;;;;;;6.38;1.30;;;15.60;56.60;;;;;;4974410;28;20070;-58
2022/09/21 10:34:30;;;;;;;4.63;0.93;;;15.70;56.10;;;;;;4978989;28;20061;-59
2022/09/21 10:36:59;;;;;;;2.67;1.27;;;15.70;56.00;;;;;;4976580;28;20050;-57
2022/09/21 10:39:30;;;;;;;5.47;1.00;;;15.80;55.00;;;;;;4977519;28;20528;-58
2022/09/21 10:42:04;;;;;;;3.83;1.10;;;15.90;55.10;;;;;;4973368;28;20057;-55
2022/09/21 10:44:43;;;;;;;1.60;1.27;;;15.90;55.20;;;;;;4972184;28;20065;-56
2022/09/21 10:47:17;;;;;;;3.08;0.90;;;15.90;55.40;;;;;;4975185;28;20834;-59
2022/09/21 10:49:49;;;;;;;5.45;1.15;;;16.00;55.20;;;;;;4971758;28;20065;-58
2022/09/21 10:52:18;;;;;;;4.70;1.05;;;16.00;55.10;;;;;;4978775;28;20050;-59
2022/09/21 10:54:50;;;;;;;4.78;1.15;;;16.00;55.10;;;;;;4980476;28;20054;-59
2022/09/21 10:57:20;;;;;;;3.55;1.10;;;16.10;55.00;;;;;;4974693;28;20455;-57
2022/09/21 10:59:49;;;;;;;2.33;0.73;;;16.10;54.90;;;;;;4978978;28;20054;-58
2022/09/21 11:02:33;;;;;;;2.63;0.88;;;16.10;54.60;;;;;;4975682;28;20062;-59
2022/09/21 11:05:06;;;;;;;8.68;1.10;;;16.20;54.00;;;;;;4980989;28;20520;-56
2022/09/21 11:07:38;;;;;;;3.30;0.65;;;16.20;54.00;;;;;;4979005;28;20057;-53
2022/09/21 11:10:15;;;;;;;1.13;0.63;;;16.30;54.10;;;;;;4978999;28;20065;-59
2022/09/21 11:12:52;;;;;;;3.08;0.60;;;16.30;53.00;;;;;;4978223;28;20058;-58
2022/09/21 11:15:32;;;;;;;3.78;0.80;;;16.40;52.80;;;;;;4980604;28;20055;-51
2022/09/21 11:18:05;;;;;;;3.97;0.90;;;16.40;53.20;;;;;;4979966;28;20394;-58
2022/09/21 11:20:41;;;;;;;2.90;0.90;;;16.50;52.00;;;;;;4980370;28;20054;-60
2022/09/21 11:23:20;;;;;;;2.90;0.90;;;16.50;52.50;;;;;;4977989;28;20054;-58
2022/09/21 11:25:53;;;;;;;5.40;1.15;;;16.50;52.40;;;;;;4979536;28;20057;-57
2022/09/21 11:28:28;;;;;;;2.87;0.77;;;16.60;52.30;;;;;;4978530;28;20054;-60
2022/09/21 11:31:14;;;;;;;4.53;0.98;;;16.60;52.50;;;;;;4978602;28;20058;-58
2022/09/21 11:34:00;;;;;;;2.47;0.50;;;16.70;52.30;;;;;;4980533;28;20061;-58
2022/09/21 11:36:39;;;;;;;5.97;0.90;;;16.70;52.10;;;;;;4980420;28;20046;-60
2022/09/21 11:39:20;;;;;;;4.07;0.98;;;16.70;50.70;;;;;;4977668;28;20046;-59
2022/09/21 11:41:59;;;;;;;4.30;0.75;;;16.80;50.10;;;;;;4979948;28;20065;-58
2022/09/21 11:44:39;;;;;;;3.95;1.17;;;16.80;50.30;;;;;;4979423;28;20054;-60
2022/09/21 11:47:17;;;;;;;4.32;1.00;;;16.90;50.80;;;;;;4977151;28;20407;-55
2022/09/21 11:50:14;;;;;;;2.20;0.73;;;16.90;49.60;;;;;;4979548;28;20058;-60
2022/09/21 11:52:51;;;;;;;4.20;1.05;;;17.00;50.30;;;;;;4980130;28;20399;-60
2022/09/21 11:55:43;;;;;;;4.47;0.70;;;17.00;50.50;;;;;;4979015;28;20062;-55
2022/09/21 11:58:20;;;;;;;5.50;0.88;;;17.10;50.80;;;;;;4979786;28;20050;-60
2022/09/21 12:00:58;;;;;;;3.67;0.90;;;17.10;50.80;;;;;;4981289;28;20523;-60
2022/09/21 12:03:44;;;;;;;4.72;0.80;;;17.10;50.70;;;;;;4979156;28;20050;-59
2022/09/21 12:06:28;;;;;;;2.80;0.75;;;17.10;50.10;;;;;;4980431;28;20059;-59
2022/09/21 12:09:16;;;;;;;3.47;0.63;;;17.20;50.50;;;;;;4980625;28;20050;-58
2022/09/21 12:11:49;;;;;;;4.75;0.95;;;17.20;50.40;;;;;;4936991;28;20057;-57
2022/09/21 12:14:22;;;;;;;4.65;0.95;;;17.20;49.40;;;;;;4979195;28;20066;-54
2022/09/21 12:16:57;;;;;;;3.45;0.70;;;17.20;48.90;;;;;;4979424;28;20057;-60
2022/09/21 12:19:35;;;;;;;5.65;0.80;;;17.30;49.60;;;;;;4978962;28;20066;-60
2022/09/21 12:22:08;;;;;;;3.42;0.80;;;17.40;49.50;;;;;;4979596;28;20065;-58
2022/09/21 12:24:40;;;;;;;1.98;0.63;;;17.40;49.60;;;;;;4978867;28;20062;-59
2022/09/21 12:27:12;;;;;;;2.40;0.60;;;17.40;49.80;;;;;;4979447;28;20054;-59
2022/09/21 12:29:46;;;;;;;2.65;0.73;;;17.50;49.50;;;;;;4981391;28;20065;-58
2022/09/21 12:32:21;;;;;;;2.37;0.77;;;17.50;49.50;;;;;;4977703;28;20059;-60
2022/09/21 12:34:55;;;;;;;5.20;0.80;;;17.50;49.30;;;;;;4977909;28;20498;-57
2022/09/21 12:37:26;;;;;;;1.58;0.70;;;17.50;48.70;;;;;;4977683;28;20046;-59
2022/09/21 12:39:59;;;;;;;2.40;1.10;;;17.50;48.30;;;;;;4982851;28;20055;-59
2022/09/21 12:42:33;;;;;;;0.67;0.53;;;17.60;48.50;;;;;;4983623;28;20058;-54
2022/09/21 12:45:06;;;;;;;1.67;0.93;;;17.60;48.40;;;;;;4987511;28;20485;-57
2022/09/21 12:47:45;;;;;;;3.22;0.60;;;17.60;48.60;;;;;;4986696;28;20438;-57
2022/09/21 12:50:20;;;;;;;3.47;0.77;;;17.70;48.50;;;;;;4983174;28;20061;-58
2022/09/21 12:52:49;;;;;;;1.67;0.60;;;17.70;48.40;;;;;;4979815;28;20073;-57
2022/09/21 12:55:31;;;;;;;4.70;0.85;;;17.70;48.30;;;;;;4984103;28;20055;-58
2022/09/21 12:58:07;;;;;;;2.38;0.65;;;17.80;47.90;;;;;;4983458;28;20505;-55
2022/09/21 13:00:52;;;;;;;2.03;0.60;;;17.80;47.80;;;;;;4971176;28;20054;-54
2022/09/21 13:03:29;;;;;;;3.30;0.70;;;17.80;47.90;;;;;;4986648;28;20061;-56
2022/09/21 13:06:15;;;;;;;1.73;0.50;;;17.90;47.70;;;;;;4978750;28;20517;-57
2022/09/21 13:08:46;;;;;;;2.30;0.55;;;17.90;47.50;;;;;;4978220;28;20046;-57
2022/09/21 13:11:19;;;;;;;1.77;0.75;;;17.90;47.30;;;;;;4980106;28;20050;-57
2022/09/21 13:13:51;;;;;;;1.17;0.53;;;17.90;47.00;;;;;;4978996;28;20065;-58
2022/09/21 13:16:26;;;;;;;1.52;0.50;;;17.90;46.00;;;;;;4982894;28;20050;-57